sensor_id;sensor_type;location;lat;lon;timestamp;P1;durP1;ratioP1;P2;durP2;ratioP2
4583;SDS011;2304;47.606;12.186;2022-08-19T00:03:43;7.47;;;5.20;;
4583;SDS011;2304;47.606;12.186;2022-08-19T00:08:45;10.77;;;6.80;;
4583;SDS011;2304;47.606;12.186;2022-08-19T00:13:47;7.97;;;6.50;;
4583;SDS011;2304;47.606;12.186;2022-08-19T00:18:51;9.43;;;7.03;;
4583;SDS011;2304;47.606;12.186;2022-08-19T00:23:53;9.20;;;5.90;;
4583;SDS011;2304;47.606;12.186;2022-08-19T00:28:58;9.73;;;6.67;;
4583;SDS011;2304;47.606;12.186;2022-08-19T00:34:02;8.40;;;6.70;;
4583;SDS011;2304;47.606;12.186;2022-08-19T00:39:04;8.13;;;6.40;;
4583;SDS011;2304;47.606;12.186;2022-08-19T00:44:07;8.20;;;6.10;;
4583;SDS011;2304;47.606;12.186;2022-08-19T00:49:14;8.93;;;6.87;;
4583;SDS011;2304;47.606;12.186;2022-08-19T00:54:19;8.23;;;6.40;;
4583;SDS011;2304;47.606;12.186;2022-08-19T00:59:22;8.00;;;6.30;;
4583;SDS011;2304;47.606;12.186;2022-08-19T01:04:26;9.40;;;7.70;;
4583;SDS011;2304;47.606;12.186;2022-08-19T01:09:28;8.77;;;6.97;;
4583;SDS011;2304;47.606;12.186;2022-08-19T01:14:30;10.07;;;7.00;;
4583;SDS011;2304;47.606;12.186;2022-08-19T01:19:35;8.37;;;7.03;;
4583;SDS011;2304;47.606;12.186;2022-08-19T01:24:40;14.67;;;6.63;;
4583;SDS011;2304;47.606;12.186;2022-08-19T01:29:42;8.13;;;6.80;;
4583;SDS011;2304;47.606;12.186;2022-08-19T01:34:45;7.97;;;6.60;;
4583;SDS011;2304;47.606;12.186;2022-08-19T01:39:49;11.60;;;6.70;;
4583;SDS011;2304;47.606;12.186;2022-08-19T01:44:51;9.17;;;7.87;;
4583;SDS011;2304;47.606;12.186;2022-08-19T01:49:52;8.10;;;6.83;;
4583;SDS011;2304;47.606;12.186;2022-08-19T01:54:56;11.00;;;7.07;;
4583;SDS011;2304;47.606;12.186;2022-08-19T01:59:58;8.23;;;7.20;;
4583;SDS011;2304;47.606;12.186;2022-08-19T02:05:02;8.80;;;7.73;;
4583;SDS011;2304;47.606;12.186;2022-08-19T02:10:07;11.60;;;7.97;;
4583;SDS011;2304;47.606;12.186;2022-08-19T02:15:13;10.67;;;8.00;;
4583;SDS011;2304;47.606;12.186;2022-08-19T02:20:15;9.20;;;7.10;;
4583;SDS011;2304;47.606;12.186;2022-08-19T02:25:19;10.57;;;7.60;;
4583;SDS011;2304;47.606;12.186;2022-08-19T02:30:21;13.87;;;7.67;;
4583;SDS011;2304;47.606;12.186;2022-08-19T02:35:24;11.57;;;6.90;;
4583;SDS011;2304;47.606;12.186;2022-08-19T02:40:28;11.23;;;7.43;;
4583;SDS011;2304;47.606;12.186;2022-08-19T02:45:34;9.90;;;7.40;;
4583;SDS011;2304;47.606;12.186;2022-08-19T02:50:37;7.83;;;5.97;;
4583;SDS011;2304;47.606;12.186;2022-08-19T02:55:44;13.37;;;8.70;;
4583;SDS011;2304;47.606;12.186;2022-08-19T03:00:47;12.60;;;6.70;;
4583;SDS011;2304;47.606;12.186;2022-08-19T03:05:51;8.47;;;6.07;;
4583;SDS011;2304;47.606;12.186;2022-08-19T03:10:54;10.93;;;7.50;;
4583;SDS011;2304;47.606;12.186;2022-08-19T03:15:56;9.90;;;5.87;;
4583;SDS011;2304;47.606;12.186;2022-08-19T03:20:58;9.60;;;7.50;;
4583;SDS011;2304;47.606;12.186;2022-08-19T03:26:03;9.97;;;7.73;;
4583;SDS011;2304;47.606;12.186;2022-08-19T03:31:07;10.97;;;6.00;;
4583;SDS011;2304;47.606;12.186;2022-08-19T03:36:12;8.97;;;6.47;;
4583;SDS011;2304;47.606;12.186;2022-08-19T03:41:17;10.23;;;6.27;;
4583;SDS011;2304;47.606;12.186;2022-08-19T03:46:21;11.90;;;6.20;;
4583;SDS011;2304;47.606;12.186;2022-08-19T03:51:25;8.90;;;5.40;;
4583;SDS011;2304;47.606;12.186;2022-08-19T03:56:32;7.43;;;5.90;;
4583;SDS011;2304;47.606;12.186;2022-08-19T04:01:35;8.67;;;6.73;;
4583;SDS011;2304;47.606;12.186;2022-08-19T04:06:38;7.70;;;5.50;;
4583;SDS011;2304;47.606;12.186;2022-08-19T04:11:45;7.53;;;6.13;;
4583;SDS011;2304;47.606;12.186;2022-08-19T04:16:47;5.73;;;5.13;;
4583;SDS011;2304;47.606;12.186;2022-08-19T04:21:51;9.63;;;6.20;;
4583;SDS011;2304;47.606;12.186;2022-08-19T04:26:55;7.07;;;5.87;;
4583;SDS011;2304;47.606;12.186;2022-08-19T04:32:00;7.80;;;6.00;;
4583;SDS011;2304;47.606;12.186;2022-08-19T04:37:04;7.70;;;6.07;;
4583;SDS011;2304;47.606;12.186;2022-08-19T04:42:13;9.33;;;6.67;;
4583;SDS011;2304;47.606;12.186;2022-08-19T04:47:32;10.47;;;6.43;;
4583;SDS011;2304;47.606;12.186;2022-08-19T04:52:34;19.33;;;6.30;;
4583;SDS011;2304;47.606;12.186;2022-08-19T04:57:37;7.50;;;6.40;;
4583;SDS011;2304;47.606;12.186;2022-08-19T05:02:40;9.10;;;6.90;;
4583;SDS011;2304;47.606;12.186;2022-08-19T05:07:42;7.77;;;6.30;;
4583;SDS011;2304;47.606;12.186;2022-08-19T05:12:45;12.50;;;7.13;;
4583;SDS011;2304;47.606;12.186;2022-08-19T05:17:47;10.03;;;7.10;;
4583;SDS011;2304;47.606;12.186;2022-08-19T05:23:03;12.70;;;6.40;;
4583;SDS011;2304;47.606;12.186;2022-08-19T05:28:06;10.40;;;6.40;;
4583;SDS011;2304;47.606;12.186;2022-08-19T05:33:08;8.03;;;5.83;;
4583;SDS011;2304;47.606;12.186;2022-08-19T05:38:11;9.67;;;6.13;;
4583;SDS011;2304;47.606;12.186;2022-08-19T05:43:14;10.10;;;6.40;;
4583;SDS011;2304;47.606;12.186;2022-08-19T05:48:17;13.20;;;5.80;;
4583;SDS011;2304;47.606;12.186;2022-08-19T05:53:20;11.13;;;6.37;;
4583;SDS011;2304;47.606;12.186;2022-08-19T05:58:23;12.03;;;6.73;;
4583;SDS011;2304;47.606;12.186;2022-08-19T06:03:26;9.80;;;5.70;;
4583;SDS011;2304;47.606;12.186;2022-08-19T06:08:28;13.10;;;6.40;;
4583;SDS011;2304;47.606;12.186;2022-08-19T06:13:31;13.07;;;7.30;;
4583;SDS011;2304;47.606;12.186;2022-08-19T06:18:34;18.97;;;9.60;;
4583;SDS011;2304;47.606;12.186;2022-08-19T06:23:35;11.97;;;7.87;;
4583;SDS011;2304;47.606;12.186;2022-08-19T06:28:39;22.03;;;10.30;;
4583;SDS011;2304;47.606;12.186;2022-08-19T06:33:47;25.97;;;11.10;;
4583;SDS011;2304;47.606;12.186;2022-08-19T06:38:49;17.80;;;9.87;;
4583;SDS011;2304;47.606;12.186;2022-08-19T06:43:53;20.13;;;9.23;;
4583;SDS011;2304;47.606;12.186;2022-08-19T06:48:55;13.40;;;9.93;;
4583;SDS011;2304;47.606;12.186;2022-08-19T06:53:56;20.83;;;9.20;;
4583;SDS011;2304;47.606;12.186;2022-08-19T06:59:00;10.40;;;8.20;;
4583;SDS011;2304;47.606;12.186;2022-08-19T07:04:04;12.80;;;8.73;;
4583;SDS011;2304;47.606;12.186;2022-08-19T07:09:08;9.50;;;6.47;;
4583;SDS011;2304;47.606;12.186;2022-08-19T07:14:13;12.67;;;7.33;;
4583;SDS011;2304;47.606;12.186;2022-08-19T07:19:18;10.87;;;5.93;;
4583;SDS011;2304;47.606;12.186;2022-08-19T07:24:22;7.23;;;5.40;;
4583;SDS011;2304;47.606;12.186;2022-08-19T07:29:27;7.17;;;5.03;;
4583;SDS011;2304;47.606;12.186;2022-08-19T07:34:31;6.63;;;4.80;;
4583;SDS011;2304;47.606;12.186;2022-08-19T07:39:35;6.27;;;4.90;;
4583;SDS011;2304;47.606;12.186;2022-08-19T07:44:38;5.47;;;4.53;;
4583;SDS011;2304;47.606;12.186;2022-08-19T07:49:41;5.90;;;4.40;;
4583;SDS011;2304;47.606;12.186;2022-08-19T07:54:43;6.57;;;4.10;;
4583;SDS011;2304;47.606;12.186;2022-08-19T07:59:47;6.73;;;4.43;;
4583;SDS011;2304;47.606;12.186;2022-08-19T08:04:48;7.77;;;4.53;;
4583;SDS011;2304;47.606;12.186;2022-08-19T08:10:08;6.97;;;4.17;;
4583;SDS011;2304;47.606;12.186;2022-08-19T08:15:12;9.57;;;4.60;;
4583;SDS011;2304;47.606;12.186;2022-08-19T08:20:18;11.20;;;5.10;;
4583;SDS011;2304;47.606;12.186;2022-08-19T08:25:21;8.07;;;5.20;;
4583;SDS011;2304;47.606;12.186;2022-08-19T08:30:26;7.40;;;4.70;;
4583;SDS011;2304;47.606;12.186;2022-08-19T08:35:30;5.20;;;3.90;;
4583;SDS011;2304;47.606;12.186;2022-08-19T08:40:33;3.90;;;3.23;;
4583;SDS011;2304;47.606;12.186;2022-08-19T08:45:45;4.63;;;3.67;;
4583;SDS011;2304;47.606;12.186;2022-08-19T08:50:53;7.57;;;3.60;;
4583;SDS011;2304;47.606;12.186;2022-08-19T08:55:57;5.70;;;3.60;;
4583;SDS011;2304;47.606;12.186;2022-08-19T09:01:04;8.77;;;4.83;;
4583;SDS011;2304;47.606;12.186;2022-08-19T09:06:06;5.30;;;4.43;;
4583;SDS011;2304;47.606;12.186;2022-08-19T09:11:14;4.37;;;3.40;;
4583;SDS011;2304;47.606;12.186;2022-08-19T09:16:21;8.83;;;4.30;;
4583;SDS011;2304;47.606;12.186;2022-08-19T09:21:27;5.37;;;3.90;;
4583;SDS011;2304;47.606;12.186;2022-08-19T09:26:29;6.30;;;4.00;;
4583;SDS011;2304;47.606;12.186;2022-08-19T09:31:33;7.00;;;4.03;;
4583;SDS011;2304;47.606;12.186;2022-08-19T09:36:35;5.67;;;3.60;;
4583;SDS011;2304;47.606;12.186;2022-08-19T09:41:38;4.00;;;3.60;;
4583;SDS011;2304;47.606;12.186;2022-08-19T09:46:42;3.80;;;2.87;;
4583;SDS011;2304;47.606;12.186;2022-08-19T09:51:44;4.47;;;3.23;;
4583;SDS011;2304;47.606;12.186;2022-08-19T09:56:48;6.20;;;4.03;;
4583;SDS011;2304;47.606;12.186;2022-08-19T10:01:51;5.47;;;3.87;;
4583;SDS011;2304;47.606;12.186;2022-08-19T10:06:55;4.40;;;3.60;;
4583;SDS011;2304;47.606;12.186;2022-08-19T10:11:57;5.87;;;3.43;;
4583;SDS011;2304;47.606;12.186;2022-08-19T10:17:02;4.37;;;3.97;;
4583;SDS011;2304;47.606;12.186;2022-08-19T10:22:04;4.83;;;3.60;;
4583;SDS011;2304;47.606;12.186;2022-08-19T10:27:07;4.63;;;4.23;;
4583;SDS011;2304;47.606;12.186;2022-08-19T10:32:11;5.80;;;4.40;;
4583;SDS011;2304;47.606;12.186;2022-08-19T10:37:12;6.03;;;4.33;;
4583;SDS011;2304;47.606;12.186;2022-08-19T10:42:14;7.30;;;4.70;;
4583;SDS011;2304;47.606;12.186;2022-08-19T10:47:19;6.87;;;5.40;;
4583;SDS011;2304;47.606;12.186;2022-08-19T10:52:22;5.40;;;4.50;;
4583;SDS011;2304;47.606;12.186;2022-08-19T10:57:37;4.87;;;4.37;;
4583;SDS011;2304;47.606;12.186;2022-08-19T11:02:40;4.00;;;3.60;;
4583;SDS011;2304;47.606;12.186;2022-08-19T11:07:43;4.73;;;3.73;;
4583;SDS011;2304;47.606;12.186;2022-08-19T11:12:45;3.93;;;3.53;;
4583;SDS011;2304;47.606;12.186;2022-08-19T11:17:49;4.83;;;4.13;;
4583;SDS011;2304;47.606;12.186;2022-08-19T11:22:54;4.60;;;3.40;;
4583;SDS011;2304;47.606;12.186;2022-08-19T11:27:56;5.53;;;4.03;;
4583;SDS011;2304;47.606;12.186;2022-08-19T11:32:59;3.90;;;3.50;;
4583;SDS011;2304;47.606;12.186;2022-08-19T11:38:02;5.13;;;4.60;;
4583;SDS011;2304;47.606;12.186;2022-08-19T11:43:04;4.33;;;3.37;;
4583;SDS011;2304;47.606;12.186;2022-08-19T11:48:07;5.03;;;3.70;;
4583;SDS011;2304;47.606;12.186;2022-08-19T11:53:09;3.70;;;3.20;;
4583;SDS011;2304;47.606;12.186;2022-08-19T11:58:11;4.30;;;3.70;;
4583;SDS011;2304;47.606;12.186;2022-08-19T12:03:14;3.77;;;3.20;;
4583;SDS011;2304;47.606;12.186;2022-08-19T12:08:16;5.80;;;4.30;;
4583;SDS011;2304;47.606;12.186;2022-08-19T12:13:18;6.43;;;4.27;;
4583;SDS011;2304;47.606;12.186;2022-08-19T12:18:21;4.73;;;4.20;;
4583;SDS011;2304;47.606;12.186;2022-08-19T12:23:24;5.33;;;3.80;;
4583;SDS011;2304;47.606;12.186;2022-08-19T12:28:26;4.97;;;3.83;;
4583;SDS011;2304;47.606;12.186;2022-08-19T12:33:29;3.50;;;3.17;;
4583;SDS011;2304;47.606;12.186;2022-08-19T12:38:32;4.40;;;4.00;;
4583;SDS011;2304;47.606;12.186;2022-08-19T12:43:35;7.17;;;4.87;;
4583;SDS011;2304;47.606;12.186;2022-08-19T12:48:39;4.73;;;3.90;;
4583;SDS011;2304;47.606;12.186;2022-08-19T12:53:42;6.27;;;5.47;;
4583;SDS011;2304;47.606;12.186;2022-08-19T12:58:44;6.37;;;5.40;;
4583;SDS011;2304;47.606;12.186;2022-08-19T13:03:48;6.70;;;4.83;;
4583;SDS011;2304;47.606;12.186;2022-08-19T13:08:49;5.50;;;5.00;;
4583;SDS011;2304;47.606;12.186;2022-08-19T13:13:52;5.60;;;5.00;;
4583;SDS011;2304;47.606;12.186;2022-08-19T13:18:56;4.67;;;4.20;;
4583;SDS011;2304;47.606;12.186;2022-08-19T13:23:58;4.93;;;4.03;;
4583;SDS011;2304;47.606;12.186;2022-08-19T13:29:01;5.20;;;4.23;;
4583;SDS011;2304;47.606;12.186;2022-08-19T13:34:26;4.80;;;3.93;;
4583;SDS011;2304;47.606;12.186;2022-08-19T13:39:30;5.27;;;4.70;;
4583;SDS011;2304;47.606;12.186;2022-08-19T13:44:33;5.10;;;3.97;;
4583;SDS011;2304;47.606;12.186;2022-08-19T13:49:37;4.53;;;3.83;;
4583;SDS011;2304;47.606;12.186;2022-08-19T13:54:38;4.73;;;4.23;;
4583;SDS011;2304;47.606;12.186;2022-08-19T13:59:40;6.13;;;3.30;;
4583;SDS011;2304;47.606;12.186;2022-08-19T14:04:43;3.43;;;2.97;;
4583;SDS011;2304;47.606;12.186;2022-08-19T14:09:45;4.00;;;3.60;;
4583;SDS011;2304;47.606;12.186;2022-08-19T14:14:47;3.80;;;3.20;;
4583;SDS011;2304;47.606;12.186;2022-08-19T14:19:50;7.73;;;3.50;;
4583;SDS011;2304;47.606;12.186;2022-08-19T14:24:57;3.70;;;3.13;;
4583;SDS011;2304;47.606;12.186;2022-08-19T14:29:59;3.90;;;3.23;;
4583;SDS011;2304;47.606;12.186;2022-08-19T14:35:04;4.50;;;3.70;;
4583;SDS011;2304;47.606;12.186;2022-08-19T14:40:08;4.43;;;3.33;;
4583;SDS011;2304;47.606;12.186;2022-08-19T14:45:11;4.20;;;3.47;;
4583;SDS011;2304;47.606;12.186;2022-08-19T14:50:15;3.60;;;1.93;;
4583;SDS011;2304;47.606;12.186;2022-08-19T14:55:17;1.87;;;1.20;;
4583;SDS011;2304;47.606;12.186;2022-08-19T15:00:19;3.73;;;1.47;;
4583;SDS011;2304;47.606;12.186;2022-08-19T15:05:24;6.03;;;1.93;;
4583;SDS011;2304;47.606;12.186;2022-08-19T15:10:27;4.03;;;1.80;;
4583;SDS011;2304;47.606;12.186;2022-08-19T15:15:28;6.50;;;2.30;;
4583;SDS011;2304;47.606;12.186;2022-08-19T15:20:32;6.07;;;2.60;;
4583;SDS011;2304;47.606;12.186;2022-08-19T15:25:34;5.93;;;2.50;;
4583;SDS011;2304;47.606;12.186;2022-08-19T15:30:36;6.07;;;1.70;;
4583;SDS011;2304;47.606;12.186;2022-08-19T15:35:40;5.70;;;2.53;;
4583;SDS011;2304;47.606;12.186;2022-08-19T15:40:42;6.33;;;2.00;;
4583;SDS011;2304;47.606;12.186;2022-08-19T15:45:44;9.93;;;2.00;;
4583;SDS011;2304;47.606;12.186;2022-08-19T15:50:47;3.93;;;1.97;;
4583;SDS011;2304;47.606;12.186;2022-08-19T15:55:49;7.27;;;2.57;;
4583;SDS011;2304;47.606;12.186;2022-08-19T16:00:51;4.90;;;1.80;;
4583;SDS011;2304;47.606;12.186;2022-08-19T16:06:12;5.63;;;2.03;;
4583;SDS011;2304;47.606;12.186;2022-08-19T16:11:28;6.50;;;2.50;;
4583;SDS011;2304;47.606;12.186;2022-08-19T16:16:31;3.13;;;1.80;;
4583;SDS011;2304;47.606;12.186;2022-08-19T16:21:35;4.73;;;2.30;;
4583;SDS011;2304;47.606;12.186;2022-08-19T16:26:39;4.90;;;2.23;;
4583;SDS011;2304;47.606;12.186;2022-08-19T16:31:42;9.73;;;3.00;;
4583;SDS011;2304;47.606;12.186;2022-08-19T16:36:47;8.27;;;3.43;;
4583;SDS011;2304;47.606;12.186;2022-08-19T16:41:49;5.20;;;2.33;;
4583;SDS011;2304;47.606;12.186;2022-08-19T16:46:51;9.60;;;3.73;;
4583;SDS011;2304;47.606;12.186;2022-08-19T16:51:54;5.83;;;2.90;;
4583;SDS011;2304;47.606;12.186;2022-08-19T16:56:57;10.90;;;3.27;;
4583;SDS011;2304;47.606;12.186;2022-08-19T17:01:59;8.27;;;2.40;;
4583;SDS011;2304;47.606;12.186;2022-08-19T17:07:02;3.77;;;2.27;;
4583;SDS011;2304;47.606;12.186;2022-08-19T17:12:05;5.43;;;2.43;;
4583;SDS011;2304;47.606;12.186;2022-08-19T17:17:07;5.37;;;2.07;;
4583;SDS011;2304;47.606;12.186;2022-08-19T17:22:13;6.70;;;2.40;;
4583;SDS011;2304;47.606;12.186;2022-08-19T17:27:15;6.23;;;3.20;;
4583;SDS011;2304;47.606;12.186;2022-08-19T17:32:18;7.40;;;2.83;;
4583;SDS011;2304;47.606;12.186;2022-08-19T17:37:22;5.10;;;3.00;;
4583;SDS011;2304;47.606;12.186;2022-08-19T17:42:24;5.00;;;2.40;;
4583;SDS011;2304;47.606;12.186;2022-08-19T17:47:26;3.97;;;1.90;;
4583;SDS011;2304;47.606;12.186;2022-08-19T17:52:29;5.87;;;2.50;;
4583;SDS011;2304;47.606;12.186;2022-08-19T17:57:31;5.90;;;2.40;;
4583;SDS011;2304;47.606;12.186;2022-08-19T18:02:33;6.80;;;1.70;;
4583;SDS011;2304;47.606;12.186;2022-08-19T18:07:36;3.10;;;1.67;;
4583;SDS011;2304;47.606;12.186;2022-08-19T18:12:38;4.27;;;2.63;;
4583;SDS011;2304;47.606;12.186;2022-08-19T18:17:40;5.73;;;2.43;;
4583;SDS011;2304;47.606;12.186;2022-08-19T18:22:44;4.30;;;2.40;;
4583;SDS011;2304;47.606;12.186;2022-08-19T18:27:48;5.20;;;2.00;;
4583;SDS011;2304;47.606;12.186;2022-08-19T18:32:51;3.67;;;2.10;;
4583;SDS011;2304;47.606;12.186;2022-08-19T18:37:56;6.30;;;1.80;;
4583;SDS011;2304;47.606;12.186;2022-08-19T18:42:59;2.70;;;2.20;;
4583;SDS011;2304;47.606;12.186;2022-08-19T18:48:18;6.30;;;2.77;;
4583;SDS011;2304;47.606;12.186;2022-08-19T18:53:39;5.47;;;2.70;;
4583;SDS011;2304;47.606;12.186;2022-08-19T18:58:42;7.57;;;3.27;;
4583;SDS011;2304;47.606;12.186;2022-08-19T19:03:45;7.33;;;3.37;;
4583;SDS011;2304;47.606;12.186;2022-08-19T19:08:51;5.57;;;3.50;;
4583;SDS011;2304;47.606;12.186;2022-08-19T19:13:54;5.80;;;3.80;;
4583;SDS011;2304;47.606;12.186;2022-08-19T19:18:56;5.23;;;3.93;;
4583;SDS011;2304;47.606;12.186;2022-08-19T19:23:59;6.63;;;3.80;;
4583;SDS011;2304;47.606;12.186;2022-08-19T19:29:01;8.80;;;5.10;;
4583;SDS011;2304;47.606;12.186;2022-08-19T19:34:03;6.50;;;4.50;;
4583;SDS011;2304;47.606;12.186;2022-08-19T19:39:07;6.43;;;4.60;;
4583;SDS011;2304;47.606;12.186;2022-08-19T19:44:09;6.10;;;3.80;;
4583;SDS011;2304;47.606;12.186;2022-08-19T19:49:12;5.80;;;3.50;;
4583;SDS011;2304;47.606;12.186;2022-08-19T19:54:15;6.40;;;3.90;;
4583;SDS011;2304;47.606;12.186;2022-08-19T19:59:19;3.30;;;2.57;;
4583;SDS011;2304;47.606;12.186;2022-08-19T20:04:21;5.90;;;4.10;;
4583;SDS011;2304;47.606;12.186;2022-08-19T20:09:25;6.10;;;3.60;;
4583;SDS011;2304;47.606;12.186;2022-08-19T20:14:27;5.30;;;3.63;;
4583;SDS011;2304;47.606;12.186;2022-08-19T20:19:32;4.27;;;3.73;;
4583;SDS011;2304;47.606;12.186;2022-08-19T20:24:37;6.13;;;4.13;;
4583;SDS011;2304;47.606;12.186;2022-08-19T20:29:41;5.30;;;3.67;;
4583;SDS011;2304;47.606;12.186;2022-08-19T20:34:43;4.60;;;3.13;;
4583;SDS011;2304;47.606;12.186;2022-08-19T20:39:49;7.33;;;5.57;;
4583;SDS011;2304;47.606;12.186;2022-08-19T20:44:51;9.30;;;6.27;;
4583;SDS011;2304;47.606;12.186;2022-08-19T20:49:53;7.07;;;5.57;;
4583;SDS011;2304;47.606;12.186;2022-08-19T20:54:56;9.00;;;7.30;;
4583;SDS011;2304;47.606;12.186;2022-08-19T20:59:58;9.33;;;6.73;;
4583;SDS011;2304;47.606;12.186;2022-08-19T21:05:02;9.23;;;7.60;;
4583;SDS011;2304;47.606;12.186;2022-08-19T21:10:08;8.10;;;6.03;;
4583;SDS011;2304;47.606;12.186;2022-08-19T21:15:10;7.57;;;4.93;;
4583;SDS011;2304;47.606;12.186;2022-08-19T21:20:12;7.43;;;4.00;;
4583;SDS011;2304;47.606;12.186;2022-08-19T21:25:16;5.77;;;3.97;;
4583;SDS011;2304;47.606;12.186;2022-08-19T21:30:18;3.50;;;2.97;;
4583;SDS011;2304;47.606;12.186;2022-08-19T21:35:20;6.20;;;2.90;;
4583;SDS011;2304;47.606;12.186;2022-08-19T21:40:24;4.17;;;2.50;;
4583;SDS011;2304;47.606;12.186;2022-08-19T21:45:27;7.93;;;3.10;;
4583;SDS011;2304;47.606;12.186;2022-08-19T21:50:29;5.37;;;4.10;;
4583;SDS011;2304;47.606;12.186;2022-08-19T21:55:33;5.13;;;3.60;;
4583;SDS011;2304;47.606;12.186;2022-08-19T22:00:34;7.03;;;3.13;;
4583;SDS011;2304;47.606;12.186;2022-08-19T22:05:37;5.73;;;3.00;;
4583;SDS011;2304;47.606;12.186;2022-08-19T22:10:40;4.73;;;2.60;;
4583;SDS011;2304;47.606;12.186;2022-08-19T22:15:42;5.03;;;2.53;;
4583;SDS011;2304;47.606;12.186;2022-08-19T22:20:44;3.93;;;3.17;;
4583;SDS011;2304;47.606;12.186;2022-08-19T22:25:48;4.07;;;3.43;;
4583;SDS011;2304;47.606;12.186;2022-08-19T22:30:50;3.90;;;3.40;;
4583;SDS011;2304;47.606;12.186;2022-08-19T22:35:51;4.50;;;3.43;;
4583;SDS011;2304;47.606;12.186;2022-08-19T22:40:55;4.23;;;3.20;;
4583;SDS011;2304;47.606;12.186;2022-08-19T22:45:57;5.80;;;4.33;;
4583;SDS011;2304;47.606;12.186;2022-08-19T22:51:00;6.83;;;4.57;;
4583;SDS011;2304;47.606;12.186;2022-08-19T22:56:21;5.33;;;4.67;;
4583;SDS011;2304;47.606;12.186;2022-08-19T23:01:23;5.07;;;4.17;;
4583;SDS011;2304;47.606;12.186;2022-08-19T23:06:25;4.70;;;3.87;;
4583;SDS011;2304;47.606;12.186;2022-08-19T23:11:29;5.70;;;4.43;;
4583;SDS011;2304;47.606;12.186;2022-08-19T23:16:33;5.90;;;4.20;;
4583;SDS011;2304;47.606;12.186;2022-08-19T23:21:35;3.97;;;3.30;;
4583;SDS011;2304;47.606;12.186;2022-08-19T23:26:39;3.97;;;3.03;;
4583;SDS011;2304;47.606;12.186;2022-08-19T23:32:02;4.60;;;2.97;;
4583;SDS011;2304;47.606;12.186;2022-08-19T23:37:06;3.83;;;2.90;;
4583;SDS011;2304;47.606;12.186;2022-08-19T23:42:10;4.00;;;2.90;;
4583;SDS011;2304;47.606;12.186;2022-08-19T23:47:12;3.43;;;2.97;;
4583;SDS011;2304;47.606;12.186;2022-08-19T23:52:14;3.53;;;2.93;;
4583;SDS011;2304;47.606;12.186;2022-08-19T23:57:17;7.03;;;3.00;;
